sensor_id;sensor_type;location;lat;lon;timestamp;temperature;humidity
55016;DHT22;40919;43.236;21.590;2022-10-31T00:00:40;282.30;2278.40
55016;DHT22;40919;43.236;21.590;2022-10-31T00:03:06;282.20;2278.40
55016;DHT22;40919;43.236;21.590;2022-10-31T00:05:32;282.50;2278.40
55016;DHT22;40919;43.236;21.590;2022-10-31T00:07:57;307.20;2304.00
55016;DHT22;40919;43.236;21.590;2022-10-31T00:10:23;307.30;2304.00
55016;DHT22;40919;43.236;21.590;2022-10-31T00:12:49;307.30;2304.00
55016;DHT22;40919;43.236;21.590;2022-10-31T00:15:15;307.40;2304.00
55016;DHT22;40919;43.236;21.590;2022-10-31T00:17:41;282.50;2278.40
55016;DHT22;40919;43.236;21.590;2022-10-31T00:20:07;307.20;2304.00
55016;DHT22;40919;43.236;21.590;2022-10-31T00:22:33;282.50;2278.40
55016;DHT22;40919;43.236;21.590;2022-10-31T00:24:59;282.50;2278.40
55016;DHT22;40919;43.236;21.590;2022-10-31T00:27:24;282.50;2278.40
55016;DHT22;40919;43.236;21.590;2022-10-31T00:29:50;282.50;2278.40
55016;DHT22;40919;43.236;21.590;2022-10-31T00:32:16;282.20;2278.40
55016;DHT22;40919;43.236;21.590;2022-10-31T00:34:42;282.40;2278.40
55016;DHT22;40919;43.236;21.590;2022-10-31T00:37:07;282.30;2278.40
55016;DHT22;40919;43.236;21.590;2022-10-31T00:39:33;282.40;2278.40
55016;DHT22;40919;43.236;21.590;2022-10-31T00:41:59;282.50;2278.40
55016;DHT22;40919;43.236;21.590;2022-10-31T00:44:25;282.00;2278.40
55016;DHT22;40919;43.236;21.590;2022-10-31T00:46:50;282.20;2278.40
55016;DHT22;40919;43.236;21.590;2022-10-31T00:49:16;281.90;2278.40
55016;DHT22;40919;43.236;21.590;2022-10-31T00:56:34;282.10;2278.40
55016;DHT22;40919;43.236;21.590;2022-10-31T00:59:00;282.20;2278.40
55016;DHT22;40919;43.236;21.590;2022-10-31T01:01:26;281.90;2278.40
55016;DHT22;40919;43.236;21.590;2022-10-31T01:03:51;281.80;2278.40
55016;DHT22;40919;43.236;21.590;2022-10-31T01:06:17;281.70;2278.40
55016;DHT22;40919;43.236;21.590;2022-10-31T01:08:43;256.80;2252.80
55016;DHT22;40919;43.236;21.590;2022-10-31T01:11:21;281.70;2278.40
55016;DHT22;40919;43.236;21.590;2022-10-31T06:31:23;231.10;2252.80
55016;DHT22;40919;43.236;21.590;2022-10-31T06:33:49;230.90;2252.80
55016;DHT22;40919;43.236;21.590;2022-10-31T06:36:14;230.90;2252.80
55016;DHT22;40919;43.236;21.590;2022-10-31T06:38:40;231.20;2252.80
55016;DHT22;40919;43.236;21.590;2022-10-31T06:41:06;231.30;2252.80
55016;DHT22;40919;43.236;21.590;2022-10-31T06:43:32;256.10;2252.80
55016;DHT22;40919;43.236;21.590;2022-10-31T06:46:02;256.20;2252.80
55016;DHT22;40919;43.236;21.590;2022-10-31T06:48:28;256.20;2252.80
55016;DHT22;40919;43.236;21.590;2022-10-31T06:50:58;256.20;2252.80
55016;DHT22;40919;43.236;21.590;2022-10-31T06:53:24;256.10;2252.80
55016;DHT22;40919;43.236;21.590;2022-10-31T06:55:50;231.30;2252.80
55016;DHT22;40919;43.236;21.590;2022-10-31T06:58:15;231.20;2252.80
55016;DHT22;40919;43.236;21.590;2022-10-31T07:00:41;231.30;2252.80
55016;DHT22;40919;43.236;21.590;2022-10-31T07:03:11;256.10;2252.80
55016;DHT22;40919;43.236;21.590;2022-10-31T07:05:37;256.20;2252.80
55016;DHT22;40919;43.236;21.590;2022-10-31T07:08:05;256.60;2252.80
55016;DHT22;40919;43.236;21.590;2022-10-31T08:11:39;333.00;2329.60
55016;DHT22;40919;43.236;21.590;2022-10-31T08:14:05;332.90;2329.60
55016;DHT22;40919;43.236;21.590;2022-10-31T16:32:27;461.30;2380.80
55016;DHT22;40919;43.236;21.590;2022-10-31T16:35:02;461.30;2380.80
55016;DHT22;40919;43.236;21.590;2022-10-31T16:37:42;461.10;2380.80
55016;DHT22;40919;43.236;21.590;2022-10-31T16:40:10;461.10;2380.80
55016;DHT22;40919;43.236;21.590;2022-10-31T19:55:55;384.00;2329.60
55016;DHT22;40919;43.236;21.590;2022-10-31T20:12:58;359.30;2329.60
55016;DHT22;40919;43.236;21.590;2022-10-31T20:15:24;359.10;2329.60
55016;DHT22;40919;43.236;21.590;2022-10-31T20:20:16;358.90;2329.60
55016;DHT22;40919;43.236;21.590;2022-10-31T20:25:09;358.90;2329.60
55016;DHT22;40919;43.236;21.590;2022-10-31T20:30:01;358.60;2329.60
55016;DHT22;40919;43.236;21.590;2022-10-31T20:37:19;358.80;2329.60
55016;DHT22;40919;43.236;21.590;2022-10-31T20:39:45;358.70;2329.60
55016;DHT22;40919;43.236;21.590;2022-10-31T20:47:03;358.80;2329.60
55016;DHT22;40919;43.236;21.590;2022-10-31T20:51:55;333.70;2329.60
55016;DHT22;40919;43.236;21.590;2022-10-31T20:54:21;333.70;2329.60
55016;DHT22;40919;43.236;21.590;2022-10-31T20:56:47;333.70;2329.60
55016;DHT22;40919;43.236;21.590;2022-10-31T20:59:13;333.60;2329.60
55016;DHT22;40919;43.236;21.590;2022-10-31T21:01:40;333.50;2329.60
55016;DHT22;40919;43.236;21.590;2022-10-31T21:04:06;333.50;2329.60
55016;DHT22;40919;43.236;21.590;2022-10-31T21:06:34;333.50;2329.60
55016;DHT22;40919;43.236;21.590;2022-10-31T21:09:00;333.50;2329.60
55016;DHT22;40919;43.236;21.590;2022-10-31T21:11:26;333.60;2329.60
55016;DHT22;40919;43.236;21.590;2022-10-31T21:13:53;333.50;2329.60
55016;DHT22;40919;43.236;21.590;2022-10-31T21:16:28;333.40;2329.60
55016;DHT22;40919;43.236;21.590;2022-10-31T21:18:56;333.30;2329.60
55016;DHT22;40919;43.236;21.590;2022-10-31T21:21:24;333.30;2329.60
55016;DHT22;40919;43.236;21.590;2022-10-31T21:24:02;333.30;2329.60
55016;DHT22;40919;43.236;21.590;2022-10-31T21:26:31;333.30;2329.60
55016;DHT22;40919;43.236;21.590;2022-10-31T21:28:58;333.30;2329.60
55016;DHT22;40919;43.236;21.590;2022-10-31T21:31:26;333.20;2329.60
55016;DHT22;40919;43.236;21.590;2022-10-31T21:33:53;333.20;2329.60
55016;DHT22;40919;43.236;21.590;2022-10-31T21:36:19;333.20;2329.60
55016;DHT22;40919;43.236;21.590;2022-10-31T21:38:52;333.20;2329.60
55016;DHT22;40919;43.236;21.590;2022-10-31T21:41:19;333.20;2329.60
55016;DHT22;40919;43.236;21.590;2022-10-31T21:43:46;333.20;2329.60
55016;DHT22;40919;43.236;21.590;2022-10-31T21:46:14;333.20;2329.60
55016;DHT22;40919;43.236;21.590;2022-10-31T21:48:41;333.30;2329.60
55016;DHT22;40919;43.236;21.590;2022-10-31T21:51:13;333.20;2329.60
55016;DHT22;40919;43.236;21.590;2022-10-31T21:53:39;333.00;2329.60
55016;DHT22;40919;43.236;21.590;2022-10-31T21:56:24;333.10;2329.60
55016;DHT22;40919;43.236;21.590;2022-10-31T21:58:51;333.10;2329.60
55016;DHT22;40919;43.236;21.590;2022-10-31T22:01:18;333.20;2329.60
55016;DHT22;40919;43.236;21.590;2022-10-31T22:03:44;333.10;2329.60
55016;DHT22;40919;43.236;21.590;2022-10-31T22:06:11;333.10;2329.60
55016;DHT22;40919;43.236;21.590;2022-10-31T22:08:38;333.00;2329.60
55016;DHT22;40919;43.236;21.590;2022-10-31T22:11:08;333.00;2329.60
55016;DHT22;40919;43.236;21.590;2022-10-31T22:13:34;333.00;2329.60
55016;DHT22;40919;43.236;21.590;2022-10-31T22:16:02;333.00;2329.60
55016;DHT22;40919;43.236;21.590;2022-10-31T22:18:28;308.10;2304.00
55016;DHT22;40919;43.236;21.590;2022-10-31T22:21:00;308.10;2304.00
55016;DHT22;40919;43.236;21.590;2022-10-31T22:23:26;308.10;2304.00
55016;DHT22;40919;43.236;21.590;2022-10-31T22:25:52;307.90;2304.00
55016;DHT22;40919;43.236;21.590;2022-10-31T22:28:17;307.90;2304.00
55016;DHT22;40919;43.236;21.590;2022-10-31T22:30:43;308.00;2304.00
55016;DHT22;40919;43.236;21.590;2022-10-31T22:33:09;308.00;2304.00
55016;DHT22;40919;43.236;21.590;2022-10-31T22:35:35;307.90;2304.00
55016;DHT22;40919;43.236;21.590;2022-10-31T22:38:03;307.90;2304.00
55016;DHT22;40919;43.236;21.590;2022-10-31T22:40:29;308.00;2304.00
55016;DHT22;40919;43.236;21.590;2022-10-31T22:42:55;307.80;2304.00
55016;DHT22;40919;43.236;21.590;2022-10-31T22:45:21;307.60;2304.00
55016;DHT22;40919;43.236;21.590;2022-10-31T22:47:46;307.70;2304.00
55016;DHT22;40919;43.236;21.590;2022-10-31T22:50:12;307.70;2304.00
55016;DHT22;40919;43.236;21.590;2022-10-31T22:52:38;307.80;2304.00
55016;DHT22;40919;43.236;21.590;2022-10-31T22:55:04;307.70;2304.00
55016;DHT22;40919;43.236;21.590;2022-10-31T22:57:30;307.70;2304.00
55016;DHT22;40919;43.236;21.590;2022-10-31T22:59:56;307.70;2304.00
55016;DHT22;40919;43.236;21.590;2022-10-31T23:02:22;307.70;2304.00
55016;DHT22;40919;43.236;21.590;2022-10-31T23:19:44;307.60;2304.00
55016;DHT22;40919;43.236;21.590;2022-10-31T23:22:10;307.40;2304.00
55016;DHT22;40919;43.236;21.590;2022-10-31T23:24:44;307.60;2304.00
55016;DHT22;40919;43.236;21.590;2022-10-31T23:27:21;307.30;2304.00
55016;DHT22;40919;43.236;21.590;2022-10-31T23:32:19;307.50;2304.00
55016;DHT22;40919;43.236;21.590;2022-10-31T23:34:47;282.50;2278.40
55016;DHT22;40919;43.236;21.590;2022-10-31T23:37:15;307.30;2304.00
55016;DHT22;40919;43.236;21.590;2022-10-31T23:39:41;307.30;2304.00
55016;DHT22;40919;43.236;21.590;2022-10-31T23:42:07;307.50;2304.00
55016;DHT22;40919;43.236;21.590;2022-10-31T23:44:33;307.60;2304.00
55016;DHT22;40919;43.236;21.590;2022-10-31T23:46:59;307.60;2304.00
55016;DHT22;40919;43.236;21.590;2022-10-31T23:49:25;307.50;2304.00
55016;DHT22;40919;43.236;21.590;2022-10-31T23:51:51;307.30;2304.00
55016;DHT22;40919;43.236;21.590;2022-10-31T23:54:17;307.30;2304.00
55016;DHT22;40919;43.236;21.590;2022-10-31T23:56:42;307.40;2304.00
55016;DHT22;40919;43.236;21.590;2022-10-31T23:59:09;307.40;2304.00
